sensor_id;sensor_type;location;lat;lon;timestamp;temperature;humidity
13721;DHT22;6932;51.438;5.470;2023-06-26T00:00:44;30.20;64.80
13721;DHT22;6932;51.438;5.470;2023-06-26T00:03:09;30.20;65.00
13721;DHT22;6932;51.438;5.470;2023-06-26T00:05:41;30.20;64.80
13721;DHT22;6932;51.438;5.470;2023-06-26T00:08:08;30.20;64.80
13721;DHT22;6932;51.438;5.470;2023-06-26T00:10:34;30.20;64.70
13721;DHT22;6932;51.438;5.470;2023-06-26T00:13:00;30.20;64.60
13721;DHT22;6932;51.438;5.470;2023-06-26T00:15:27;30.20;64.50
13721;DHT22;6932;51.438;5.470;2023-06-26T00:17:57;30.20;64.40
13721;DHT22;6932;51.438;5.470;2023-06-26T00:20:25;30.20;64.20
13721;DHT22;6932;51.438;5.470;2023-06-26T00:22:51;30.20;64.10
13721;DHT22;6932;51.438;5.470;2023-06-26T00:25:19;30.20;64.10
13721;DHT22;6932;51.438;5.470;2023-06-26T00:27:45;30.20;64.10
13721;DHT22;6932;51.438;5.470;2023-06-26T00:30:11;30.20;64.10
13721;DHT22;6932;51.438;5.470;2023-06-26T00:32:37;30.20;64.00
13721;DHT22;6932;51.438;5.470;2023-06-26T00:35:03;30.20;63.90
13721;DHT22;6932;51.438;5.470;2023-06-26T00:37:28;30.20;63.90
13721;DHT22;6932;51.438;5.470;2023-06-26T00:39:54;30.20;63.80
13721;DHT22;6932;51.438;5.470;2023-06-26T00:42:20;30.20;63.80
13721;DHT22;6932;51.438;5.470;2023-06-26T00:44:46;30.20;63.70
13721;DHT22;6932;51.438;5.470;2023-06-26T00:47:15;30.20;63.80
13721;DHT22;6932;51.438;5.470;2023-06-26T00:49:41;30.20;63.70
13721;DHT22;6932;51.438;5.470;2023-06-26T00:52:07;30.10;63.60
13721;DHT22;6932;51.438;5.470;2023-06-26T00:54:34;30.10;63.50
13721;DHT22;6932;51.438;5.470;2023-06-26T00:57:00;30.10;63.60
13721;DHT22;6932;51.438;5.470;2023-06-26T00:59:25;30.10;63.70
13721;DHT22;6932;51.438;5.470;2023-06-26T01:01:51;30.00;63.60
13721;DHT22;6932;51.438;5.470;2023-06-26T01:04:17;30.00;63.60
13721;DHT22;6932;51.438;5.470;2023-06-26T01:06:46;30.00;63.60
13721;DHT22;6932;51.438;5.470;2023-06-26T01:09:21;29.90;63.20
13721;DHT22;6932;51.438;5.470;2023-06-26T01:11:48;29.90;63.00
13721;DHT22;6932;51.438;5.470;2023-06-26T01:14:13;29.80;62.80
13721;DHT22;6932;51.438;5.470;2023-06-26T01:16:40;29.80;62.80
13721;DHT22;6932;51.438;5.470;2023-06-26T01:19:27;29.70;63.40
13721;DHT22;6932;51.438;5.470;2023-06-26T01:22:14;29.60;62.70
13721;DHT22;6932;51.438;5.470;2023-06-26T01:24:56;29.60;62.80
13721;DHT22;6932;51.438;5.470;2023-06-26T01:27:27;29.60;63.00
13721;DHT22;6932;51.438;5.470;2023-06-26T01:29:55;29.50;63.10
13721;DHT22;6932;51.438;5.470;2023-06-26T01:32:23;29.50;63.30
13721;DHT22;6932;51.438;5.470;2023-06-26T01:34:50;29.50;63.50
13721;DHT22;6932;51.438;5.470;2023-06-26T01:37:17;29.40;63.50
13721;DHT22;6932;51.438;5.470;2023-06-26T01:39:43;29.40;64.30
13721;DHT22;6932;51.438;5.470;2023-06-26T01:42:09;29.30;63.60
13721;DHT22;6932;51.438;5.470;2023-06-26T01:44:37;29.30;63.70
13721;DHT22;6932;51.438;5.470;2023-06-26T01:47:12;29.20;63.30
13721;DHT22;6932;51.438;5.470;2023-06-26T01:50:26;29.20;63.20
13721;DHT22;6932;51.438;5.470;2023-06-26T01:53:24;29.10;63.10
13721;DHT22;6932;51.438;5.470;2023-06-26T01:55:54;29.10;63.20
13721;DHT22;6932;51.438;5.470;2023-06-26T01:58:25;29.10;63.30
13721;DHT22;6932;51.438;5.470;2023-06-26T02:00:53;29.00;63.20
13721;DHT22;6932;51.438;5.470;2023-06-26T02:03:19;29.00;63.30
13721;DHT22;6932;51.438;5.470;2023-06-26T02:05:45;28.90;63.10
13721;DHT22;6932;51.438;5.470;2023-06-26T02:08:13;28.90;63.10
13721;DHT22;6932;51.438;5.470;2023-06-26T02:10:40;28.80;62.90
13721;DHT22;6932;51.438;5.470;2023-06-26T02:13:06;28.80;62.80
13721;DHT22;6932;51.438;5.470;2023-06-26T02:15:32;28.80;63.00
13721;DHT22;6932;51.438;5.470;2023-06-26T02:17:58;28.70;62.90
13721;DHT22;6932;51.438;5.470;2023-06-26T02:20:23;28.70;62.90
13721;DHT22;6932;51.438;5.470;2023-06-26T02:22:49;28.70;62.90
13721;DHT22;6932;51.438;5.470;2023-06-26T02:25:15;28.60;62.80
13721;DHT22;6932;51.438;5.470;2023-06-26T02:27:40;28.60;62.80
13721;DHT22;6932;51.438;5.470;2023-06-26T02:30:08;28.60;63.00
13721;DHT22;6932;51.438;5.470;2023-06-26T02:32:34;28.50;63.00
13721;DHT22;6932;51.438;5.470;2023-06-26T02:35:01;28.50;63.00
13721;DHT22;6932;51.438;5.470;2023-06-26T02:37:27;28.40;63.10
13721;DHT22;6932;51.438;5.470;2023-06-26T02:39:52;28.40;63.20
13721;DHT22;6932;51.438;5.470;2023-06-26T02:42:18;28.40;63.20
13721;DHT22;6932;51.438;5.470;2023-06-26T02:44:44;28.30;63.20
13721;DHT22;6932;51.438;5.470;2023-06-26T02:47:10;28.30;63.20
13721;DHT22;6932;51.438;5.470;2023-06-26T02:49:35;28.30;63.20
13721;DHT22;6932;51.438;5.470;2023-06-26T02:52:01;28.30;63.50
13721;DHT22;6932;51.438;5.470;2023-06-26T02:54:27;28.30;63.60
13721;DHT22;6932;51.438;5.470;2023-06-26T02:56:52;28.20;63.60
13721;DHT22;6932;51.438;5.470;2023-06-26T02:59:18;28.20;63.80
13721;DHT22;6932;51.438;5.470;2023-06-26T03:01:44;28.10;63.90
13721;DHT22;6932;51.438;5.470;2023-06-26T03:04:10;28.10;64.00
13721;DHT22;6932;51.438;5.470;2023-06-26T03:06:36;28.10;64.10
13721;DHT22;6932;51.438;5.470;2023-06-26T03:09:02;28.00;64.20
13721;DHT22;6932;51.438;5.470;2023-06-26T03:11:28;28.00;64.40
13721;DHT22;6932;51.438;5.470;2023-06-26T03:13:54;28.00;65.20
13721;DHT22;6932;51.438;5.470;2023-06-26T03:16:19;28.00;64.60
13721;DHT22;6932;51.438;5.470;2023-06-26T03:18:45;27.90;64.60
13721;DHT22;6932;51.438;5.470;2023-06-26T03:21:11;27.90;64.70
13721;DHT22;6932;51.438;5.470;2023-06-26T03:23:37;27.80;64.80
13721;DHT22;6932;51.438;5.470;2023-06-26T03:26:02;27.80;64.90
13721;DHT22;6932;51.438;5.470;2023-06-26T03:28:28;27.80;65.00
13721;DHT22;6932;51.438;5.470;2023-06-26T03:30:56;27.80;65.10
13721;DHT22;6932;51.438;5.470;2023-06-26T03:33:22;27.70;65.20
13721;DHT22;6932;51.438;5.470;2023-06-26T03:35:48;27.70;65.40
13721;DHT22;6932;51.438;5.470;2023-06-26T03:38:13;27.70;65.70
13721;DHT22;6932;51.438;5.470;2023-06-26T03:40:39;27.70;66.60
13721;DHT22;6932;51.438;5.470;2023-06-26T03:43:05;27.60;66.20
13721;DHT22;6932;51.438;5.470;2023-06-26T03:45:30;27.70;66.40
13721;DHT22;6932;51.438;5.470;2023-06-26T03:47:56;27.60;66.60
13721;DHT22;6932;51.438;5.470;2023-06-26T03:50:22;27.60;66.70
13721;DHT22;6932;51.438;5.470;2023-06-26T03:52:48;27.60;66.80
13721;DHT22;6932;51.438;5.470;2023-06-26T03:55:15;27.50;67.00
13721;DHT22;6932;51.438;5.470;2023-06-26T03:57:41;27.50;67.10
13721;DHT22;6932;51.438;5.470;2023-06-26T04:00:07;27.50;67.10
13721;DHT22;6932;51.438;5.470;2023-06-26T04:02:34;27.50;67.30
13721;DHT22;6932;51.438;5.470;2023-06-26T04:05:01;27.50;67.60
13721;DHT22;6932;51.438;5.470;2023-06-26T04:07:28;27.40;67.80
13721;DHT22;6932;51.438;5.470;2023-06-26T04:09:54;27.40;68.10
13721;DHT22;6932;51.438;5.470;2023-06-26T04:12:20;27.40;68.30
13721;DHT22;6932;51.438;5.470;2023-06-26T04:14:46;27.40;68.40
13721;DHT22;6932;51.438;5.470;2023-06-26T04:17:11;27.30;68.60
13721;DHT22;6932;51.438;5.470;2023-06-26T04:19:37;27.30;68.80
13721;DHT22;6932;51.438;5.470;2023-06-26T04:22:03;27.30;69.10
13721;DHT22;6932;51.438;5.470;2023-06-26T04:24:29;27.30;69.40
13721;DHT22;6932;51.438;5.470;2023-06-26T04:26:55;27.30;69.60
13721;DHT22;6932;51.438;5.470;2023-06-26T04:29:23;27.30;69.80
13721;DHT22;6932;51.438;5.470;2023-06-26T04:31:51;27.30;70.10
13721;DHT22;6932;51.438;5.470;2023-06-26T04:34:17;27.30;70.10
13721;DHT22;6932;51.438;5.470;2023-06-26T04:36:43;27.30;70.10
13721;DHT22;6932;51.438;5.470;2023-06-26T04:39:14;27.30;70.30
13721;DHT22;6932;51.438;5.470;2023-06-26T04:41:42;27.30;70.50
13721;DHT22;6932;51.438;5.470;2023-06-26T04:44:08;27.30;71.30
13721;DHT22;6932;51.438;5.470;2023-06-26T04:46:34;27.30;70.90
13721;DHT22;6932;51.438;5.470;2023-06-26T04:48:59;27.30;70.90
13721;DHT22;6932;51.438;5.470;2023-06-26T04:51:26;27.40;71.00
13721;DHT22;6932;51.438;5.470;2023-06-26T04:53:52;27.40;71.00
13721;DHT22;6932;51.438;5.470;2023-06-26T04:56:18;27.40;71.00
13721;DHT22;6932;51.438;5.470;2023-06-26T04:58:44;27.50;71.00
13721;DHT22;6932;51.438;5.470;2023-06-26T05:01:09;27.50;71.00
13721;DHT22;6932;51.438;5.470;2023-06-26T05:03:35;27.50;71.00
13721;DHT22;6932;51.438;5.470;2023-06-26T05:06:02;27.50;71.00
13721;DHT22;6932;51.438;5.470;2023-06-26T05:08:28;27.50;71.60
13721;DHT22;6932;51.438;5.470;2023-06-26T05:10:53;27.60;71.00
13721;DHT22;6932;51.438;5.470;2023-06-26T05:13:23;27.60;71.00
13721;DHT22;6932;51.438;5.470;2023-06-26T05:15:49;27.60;71.00
13721;DHT22;6932;51.438;5.470;2023-06-26T05:18:16;27.70;71.00
13721;DHT22;6932;51.438;5.470;2023-06-26T05:20:42;27.70;70.90
13721;DHT22;6932;51.438;5.470;2023-06-26T05:23:11;27.70;70.70
13721;DHT22;6932;51.438;5.470;2023-06-26T05:25:38;27.70;70.60
13721;DHT22;6932;51.438;5.470;2023-06-26T05:28:04;27.70;70.50
13721;DHT22;6932;51.438;5.470;2023-06-26T05:30:36;27.70;70.50
13721;DHT22;6932;51.438;5.470;2023-06-26T05:33:02;27.80;70.50
13721;DHT22;6932;51.438;5.470;2023-06-26T05:35:29;27.70;70.40
13721;DHT22;6932;51.438;5.470;2023-06-26T05:37:57;27.80;70.40
13721;DHT22;6932;51.438;5.470;2023-06-26T05:40:24;27.80;70.30
13721;DHT22;6932;51.438;5.470;2023-06-26T05:42:50;27.80;70.20
13721;DHT22;6932;51.438;5.470;2023-06-26T05:45:16;27.90;69.90
13721;DHT22;6932;51.438;5.470;2023-06-26T05:47:42;27.90;69.90
13721;DHT22;6932;51.438;5.470;2023-06-26T05:50:09;27.90;69.50
13721;DHT22;6932;51.438;5.470;2023-06-26T05:52:36;27.90;69.40
13721;DHT22;6932;51.438;5.470;2023-06-26T05:55:02;28.00;69.40
13721;DHT22;6932;51.438;5.470;2023-06-26T05:57:29;27.90;69.10
13721;DHT22;6932;51.438;5.470;2023-06-26T05:59:56;28.00;68.90
13721;DHT22;6932;51.438;5.470;2023-06-26T06:02:22;28.00;68.90
13721;DHT22;6932;51.438;5.470;2023-06-26T06:04:48;28.00;68.90
13721;DHT22;6932;51.438;5.470;2023-06-26T06:07:15;28.10;68.70
13721;DHT22;6932;51.438;5.470;2023-06-26T06:09:41;28.10;68.70
13721;DHT22;6932;51.438;5.470;2023-06-26T06:12:07;28.10;68.50
13721;DHT22;6932;51.438;5.470;2023-06-26T06:14:34;28.20;68.20
13721;DHT22;6932;51.438;5.470;2023-06-26T06:17:00;28.30;68.00
13721;DHT22;6932;51.438;5.470;2023-06-26T06:19:26;28.30;67.90
13721;DHT22;6932;51.438;5.470;2023-06-26T06:21:53;28.30;67.80
13721;DHT22;6932;51.438;5.470;2023-06-26T06:24:19;28.40;67.50
13721;DHT22;6932;51.438;5.470;2023-06-26T06:26:45;28.40;67.50
13721;DHT22;6932;51.438;5.470;2023-06-26T06:29:11;28.50;67.50
13721;DHT22;6932;51.438;5.470;2023-06-26T06:31:36;28.60;67.40
13721;DHT22;6932;51.438;5.470;2023-06-26T06:34:02;28.70;67.30
13721;DHT22;6932;51.438;5.470;2023-06-26T06:36:28;28.70;67.10
13721;DHT22;6932;51.438;5.470;2023-06-26T06:38:53;28.80;66.90
13721;DHT22;6932;51.438;5.470;2023-06-26T06:41:22;28.90;66.60
13721;DHT22;6932;51.438;5.470;2023-06-26T06:43:48;29.00;66.20
13721;DHT22;6932;51.438;5.470;2023-06-26T06:46:13;29.10;66.10
13721;DHT22;6932;51.438;5.470;2023-06-26T06:48:39;29.20;65.80
13721;DHT22;6932;51.438;5.470;2023-06-26T06:51:05;29.20;65.60
13721;DHT22;6932;51.438;5.470;2023-06-26T06:53:31;29.30;65.50
13721;DHT22;6932;51.438;5.470;2023-06-26T06:55:57;29.30;65.30
13721;DHT22;6932;51.438;5.470;2023-06-26T06:58:23;29.40;65.10
13721;DHT22;6932;51.438;5.470;2023-06-26T07:00:49;29.50;64.80
13721;DHT22;6932;51.438;5.470;2023-06-26T07:03:16;29.50;64.30
13721;DHT22;6932;51.438;5.470;2023-06-26T07:05:42;29.60;64.10
13721;DHT22;6932;51.438;5.470;2023-06-26T07:08:08;29.60;63.90
13721;DHT22;6932;51.438;5.470;2023-06-26T07:10:34;29.70;63.70
13721;DHT22;6932;51.438;5.470;2023-06-26T07:12:59;29.70;63.60
13721;DHT22;6932;51.438;5.470;2023-06-26T07:15:25;29.80;63.80
13721;DHT22;6932;51.438;5.470;2023-06-26T07:17:51;29.80;63.60
13721;DHT22;6932;51.438;5.470;2023-06-26T07:20:17;29.90;63.40
13721;DHT22;6932;51.438;5.470;2023-06-26T07:22:43;30.00;63.30
13721;DHT22;6932;51.438;5.470;2023-06-26T07:25:10;30.00;63.10
13721;DHT22;6932;51.438;5.470;2023-06-26T07:27:40;30.10;63.10
13721;DHT22;6932;51.438;5.470;2023-06-26T07:30:07;30.10;62.90
13721;DHT22;6932;51.438;5.470;2023-06-26T07:32:37;30.20;62.90
13721;DHT22;6932;51.438;5.470;2023-06-26T07:35:03;30.20;62.70
13721;DHT22;6932;51.438;5.470;2023-06-26T07:37:29;30.20;62.60
13721;DHT22;6932;51.438;5.470;2023-06-26T07:39:55;30.10;62.70
13721;DHT22;6932;51.438;5.470;2023-06-26T07:42:21;30.10;62.80
13721;DHT22;6932;51.438;5.470;2023-06-26T07:44:47;30.00;62.90
13721;DHT22;6932;51.438;5.470;2023-06-26T07:47:12;30.00;63.10
13721;DHT22;6932;51.438;5.470;2023-06-26T07:49:39;29.90;63.30
13721;DHT22;6932;51.438;5.470;2023-06-26T07:52:06;29.90;63.00
13721;DHT22;6932;51.438;5.470;2023-06-26T07:54:32;29.90;63.20
13721;DHT22;6932;51.438;5.470;2023-06-26T07:57:02;30.00;63.40
13721;DHT22;6932;51.438;5.470;2023-06-26T07:59:32;30.00;63.20
13721;DHT22;6932;51.438;5.470;2023-06-26T08:01:58;30.00;62.90
13721;DHT22;6932;51.438;5.470;2023-06-26T08:04:26;30.10;62.80
13721;DHT22;6932;51.438;5.470;2023-06-26T08:06:55;30.10;62.40
13721;DHT22;6932;51.438;5.470;2023-06-26T08:09:24;30.20;62.20
13721;DHT22;6932;51.438;5.470;2023-06-26T08:11:51;30.30;61.90
13721;DHT22;6932;51.438;5.470;2023-06-26T08:14:17;30.30;61.60
13721;DHT22;6932;51.438;5.470;2023-06-26T08:16:44;30.40;61.60
13721;DHT22;6932;51.438;5.470;2023-06-26T08:19:11;30.40;61.40
13721;DHT22;6932;51.438;5.470;2023-06-26T08:21:40;30.40;61.30
13721;DHT22;6932;51.438;5.470;2023-06-26T08:24:06;30.40;61.30
13721;DHT22;6932;51.438;5.470;2023-06-26T08:26:33;30.40;61.30
13721;DHT22;6932;51.438;5.470;2023-06-26T08:28:59;30.40;61.30
13721;DHT22;6932;51.438;5.470;2023-06-26T08:31:25;30.40;61.30
13721;DHT22;6932;51.438;5.470;2023-06-26T08:33:51;30.40;60.60
13721;DHT22;6932;51.438;5.470;2023-06-26T08:36:16;30.30;60.40
13721;DHT22;6932;51.438;5.470;2023-06-26T08:38:42;30.30;60.30
13721;DHT22;6932;51.438;5.470;2023-06-26T08:41:08;30.30;60.00
13721;DHT22;6932;51.438;5.470;2023-06-26T08:43:35;30.30;59.80
13721;DHT22;6932;51.438;5.470;2023-06-26T08:46:02;30.30;59.80
13721;DHT22;6932;51.438;5.470;2023-06-26T08:48:32;30.30;59.80
13721;DHT22;6932;51.438;5.470;2023-06-26T08:51:11;30.40;59.20
13721;DHT22;6932;51.438;5.470;2023-06-26T08:56:25;30.40;58.70
13721;DHT22;6932;51.438;5.470;2023-06-26T08:58:54;30.50;57.70
13721;DHT22;6932;51.438;5.470;2023-06-26T09:01:21;30.50;57.00
13721;DHT22;6932;51.438;5.470;2023-06-26T09:03:48;30.60;57.10
13721;DHT22;6932;51.438;5.470;2023-06-26T09:06:14;30.70;57.00
13721;DHT22;6932;51.438;5.470;2023-06-26T09:08:41;30.70;56.80
13721;DHT22;6932;51.438;5.470;2023-06-26T09:11:06;30.80;56.60
13721;DHT22;6932;51.438;5.470;2023-06-26T09:13:33;30.90;56.50
13721;DHT22;6932;51.438;5.470;2023-06-26T09:15:59;31.00;56.20
13721;DHT22;6932;51.438;5.470;2023-06-26T09:18:32;31.10;56.00
13721;DHT22;6932;51.438;5.470;2023-06-26T09:20:58;31.20;55.30
13721;DHT22;6932;51.438;5.470;2023-06-26T09:23:24;31.30;54.90
13721;DHT22;6932;51.438;5.470;2023-06-26T09:25:51;31.40;54.50
13721;DHT22;6932;51.438;5.470;2023-06-26T09:28:17;31.50;54.10
13721;DHT22;6932;51.438;5.470;2023-06-26T09:30:44;31.60;53.90
13721;DHT22;6932;51.438;5.470;2023-06-26T09:33:19;31.60;53.40
13721;DHT22;6932;51.438;5.470;2023-06-26T09:35:46;31.70;53.00
13721;DHT22;6932;51.438;5.470;2023-06-26T09:38:13;31.80;53.00
13721;DHT22;6932;51.438;5.470;2023-06-26T09:40:40;31.80;52.70
13721;DHT22;6932;51.438;5.470;2023-06-26T09:43:07;31.80;52.20
13721;DHT22;6932;51.438;5.470;2023-06-26T09:45:35;31.80;52.00
13721;DHT22;6932;51.438;5.470;2023-06-26T09:48:05;31.80;52.20
13721;DHT22;6932;51.438;5.470;2023-06-26T09:50:34;31.80;52.20
13721;DHT22;6932;51.438;5.470;2023-06-26T09:53:11;31.80;52.10
13721;DHT22;6932;51.438;5.470;2023-06-26T09:55:40;31.70;52.00
13721;DHT22;6932;51.438;5.470;2023-06-26T09:58:11;31.60;51.40
13721;DHT22;6932;51.438;5.470;2023-06-26T10:00:41;31.50;51.20
13721;DHT22;6932;51.438;5.470;2023-06-26T10:03:10;31.50;51.00
13721;DHT22;6932;51.438;5.470;2023-06-26T10:05:38;31.40;50.90
13721;DHT22;6932;51.438;5.470;2023-06-26T10:08:05;31.40;50.30
13721;DHT22;6932;51.438;5.470;2023-06-26T10:10:34;31.10;50.20
13721;DHT22;6932;51.438;5.470;2023-06-26T10:13:25;31.10;50.30
13721;DHT22;6932;51.438;5.470;2023-06-26T10:15:58;31.30;50.90
13721;DHT22;6932;51.438;5.470;2023-06-26T10:18:27;31.40;50.20
13721;DHT22;6932;51.438;5.470;2023-06-26T10:20:57;31.50;49.90
13721;DHT22;6932;51.438;5.470;2023-06-26T10:23:28;31.60;49.40
13721;DHT22;6932;51.438;5.470;2023-06-26T10:25:58;31.70;49.20
13721;DHT22;6932;51.438;5.470;2023-06-26T10:28:27;31.70;48.80
13721;DHT22;6932;51.438;5.470;2023-06-26T10:30:55;31.80;48.30
13721;DHT22;6932;51.438;5.470;2023-06-26T10:33:22;31.80;47.70
13721;DHT22;6932;51.438;5.470;2023-06-26T10:35:49;31.90;48.00
13721;DHT22;6932;51.438;5.470;2023-06-26T10:38:15;31.90;47.80
13721;DHT22;6932;51.438;5.470;2023-06-26T10:40:45;31.90;47.90
13721;DHT22;6932;51.438;5.470;2023-06-26T10:43:14;31.90;47.80
13721;DHT22;6932;51.438;5.470;2023-06-26T10:45:48;31.90;48.00
13721;DHT22;6932;51.438;5.470;2023-06-26T10:48:21;32.00;47.80
13721;DHT22;6932;51.438;5.470;2023-06-26T10:50:48;32.00;48.70
13721;DHT22;6932;51.438;5.470;2023-06-26T10:56:05;32.00;48.80
13721;DHT22;6932;51.438;5.470;2023-06-26T10:58:32;32.00;49.00
13721;DHT22;6932;51.438;5.470;2023-06-26T11:01:23;32.00;48.60
13721;DHT22;6932;51.438;5.470;2023-06-26T11:04:01;32.00;48.40
13721;DHT22;6932;51.438;5.470;2023-06-26T11:06:32;32.00;48.10
13721;DHT22;6932;51.438;5.470;2023-06-26T11:09:17;32.00;47.50
13721;DHT22;6932;51.438;5.470;2023-06-26T11:14:25;31.80;46.00
13721;DHT22;6932;51.438;5.470;2023-06-26T11:16:57;31.60;46.10
13721;DHT22;6932;51.438;5.470;2023-06-26T11:19:26;31.60;46.30
13721;DHT22;6932;51.438;5.470;2023-06-26T11:22:04;31.50;46.40
13721;DHT22;6932;51.438;5.470;2023-06-26T11:24:30;31.40;46.00
13721;DHT22;6932;51.438;5.470;2023-06-26T11:27:00;31.40;46.10
13721;DHT22;6932;51.438;5.470;2023-06-26T11:29:27;31.30;46.80
13721;DHT22;6932;51.438;5.470;2023-06-26T11:32:03;31.30;47.00
13721;DHT22;6932;51.438;5.470;2023-06-26T11:34:31;31.30;47.10
13721;DHT22;6932;51.438;5.470;2023-06-26T11:36:58;31.30;47.00
13721;DHT22;6932;51.438;5.470;2023-06-26T11:39:26;31.30;47.90
13721;DHT22;6932;51.438;5.470;2023-06-26T11:41:52;31.30;47.60
13721;DHT22;6932;51.438;5.470;2023-06-26T11:44:17;31.30;47.40
13721;DHT22;6932;51.438;5.470;2023-06-26T11:46:45;31.20;47.70
13721;DHT22;6932;51.438;5.470;2023-06-26T11:49:11;31.20;48.00
13721;DHT22;6932;51.438;5.470;2023-06-26T11:51:37;31.20;48.30
13721;DHT22;6932;51.438;5.470;2023-06-26T11:54:03;31.20;48.40
13721;DHT22;6932;51.438;5.470;2023-06-26T11:56:30;31.10;48.20
13721;DHT22;6932;51.438;5.470;2023-06-26T11:59:07;31.10;48.50
13721;DHT22;6932;51.438;5.470;2023-06-26T12:01:40;31.10;48.50
13721;DHT22;6932;51.438;5.470;2023-06-26T12:04:11;31.20;48.60
13721;DHT22;6932;51.438;5.470;2023-06-26T12:06:40;31.10;48.50
13721;DHT22;6932;51.438;5.470;2023-06-26T12:09:09;31.20;49.20
13721;DHT22;6932;51.438;5.470;2023-06-26T12:11:41;31.10;49.00
13721;DHT22;6932;51.438;5.470;2023-06-26T12:14:10;31.00;48.90
13721;DHT22;6932;51.438;5.470;2023-06-26T12:16:37;30.90;48.90
13721;DHT22;6932;51.438;5.470;2023-06-26T12:19:06;30.80;49.50
13721;DHT22;6932;51.438;5.470;2023-06-26T12:24:07;30.50;49.00
13721;DHT22;6932;51.438;5.470;2023-06-26T12:26:34;30.40;49.30
13721;DHT22;6932;51.438;5.470;2023-06-26T12:31:31;30.40;49.00
13721;DHT22;6932;51.438;5.470;2023-06-26T12:33:58;30.40;49.20
13721;DHT22;6932;51.438;5.470;2023-06-26T12:36:24;30.40;48.90
13721;DHT22;6932;51.438;5.470;2023-06-26T12:38:52;30.40;48.80
13721;DHT22;6932;51.438;5.470;2023-06-26T12:41:18;30.40;47.80
13721;DHT22;6932;51.438;5.470;2023-06-26T12:43:46;30.40;47.80
13721;DHT22;6932;51.438;5.470;2023-06-26T12:46:12;30.40;47.80
13721;DHT22;6932;51.438;5.470;2023-06-26T12:48:42;30.40;48.10
13721;DHT22;6932;51.438;5.470;2023-06-26T12:51:12;30.30;48.40
13721;DHT22;6932;51.438;5.470;2023-06-26T12:53:39;30.30;48.30
13721;DHT22;6932;51.438;5.470;2023-06-26T12:56:06;30.30;49.20
13721;DHT22;6932;51.438;5.470;2023-06-26T12:58:37;30.20;50.00
13721;DHT22;6932;51.438;5.470;2023-06-26T13:01:04;30.20;49.90
13721;DHT22;6932;51.438;5.470;2023-06-26T13:03:36;30.10;49.60
13721;DHT22;6932;51.438;5.470;2023-06-26T13:06:02;30.10;49.70
13721;DHT22;6932;51.438;5.470;2023-06-26T13:08:28;30.00;49.50
13721;DHT22;6932;51.438;5.470;2023-06-26T13:10:54;30.00;49.60
13721;DHT22;6932;51.438;5.470;2023-06-26T13:13:20;29.90;49.50
13721;DHT22;6932;51.438;5.470;2023-06-26T13:15:45;29.90;49.40
13721;DHT22;6932;51.438;5.470;2023-06-26T13:18:11;29.80;49.20
13721;DHT22;6932;51.438;5.470;2023-06-26T13:20:37;29.70;49.40
13721;DHT22;6932;51.438;5.470;2023-06-26T13:23:03;29.70;49.30
13721;DHT22;6932;51.438;5.470;2023-06-26T13:25:29;29.60;47.80
13721;DHT22;6932;51.438;5.470;2023-06-26T13:27:55;29.60;48.10
13721;DHT22;6932;51.438;5.470;2023-06-26T13:30:21;29.60;48.50
13721;DHT22;6932;51.438;5.470;2023-06-26T13:32:47;29.50;48.60
13721;DHT22;6932;51.438;5.470;2023-06-26T13:35:13;29.50;48.70
13721;DHT22;6932;51.438;5.470;2023-06-26T13:37:41;29.50;49.00
13721;DHT22;6932;51.438;5.470;2023-06-26T13:40:08;29.50;49.90
13721;DHT22;6932;51.438;5.470;2023-06-26T13:42:35;29.50;49.40
13721;DHT22;6932;51.438;5.470;2023-06-26T13:45:02;29.50;49.20
13721;DHT22;6932;51.438;5.470;2023-06-26T13:47:29;29.50;48.80
13721;DHT22;6932;51.438;5.470;2023-06-26T13:49:55;29.50;48.70
13721;DHT22;6932;51.438;5.470;2023-06-26T13:52:21;29.50;48.80
13721;DHT22;6932;51.438;5.470;2023-06-26T13:54:46;29.40;48.90
13721;DHT22;6932;51.438;5.470;2023-06-26T13:57:12;29.40;49.20
13721;DHT22;6932;51.438;5.470;2023-06-26T13:59:39;29.40;48.40
13721;DHT22;6932;51.438;5.470;2023-06-26T14:02:05;29.40;48.30
13721;DHT22;6932;51.438;5.470;2023-06-26T14:04:32;29.40;48.70
13721;DHT22;6932;51.438;5.470;2023-06-26T14:06:58;29.40;48.70
13721;DHT22;6932;51.438;5.470;2023-06-26T14:09:24;29.40;48.60
13721;DHT22;6932;51.438;5.470;2023-06-26T14:11:50;29.40;48.00
13721;DHT22;6932;51.438;5.470;2023-06-26T14:14:15;29.40;48.10
13721;DHT22;6932;51.438;5.470;2023-06-26T14:16:41;29.40;48.30
13721;DHT22;6932;51.438;5.470;2023-06-26T14:19:07;29.40;49.10
13721;DHT22;6932;51.438;5.470;2023-06-26T14:21:39;29.40;50.10
13721;DHT22;6932;51.438;5.470;2023-06-26T14:24:06;29.40;50.10
13721;DHT22;6932;51.438;5.470;2023-06-26T14:26:31;29.40;49.90
13721;DHT22;6932;51.438;5.470;2023-06-26T14:28:59;29.40;49.90
13721;DHT22;6932;51.438;5.470;2023-06-26T14:31:26;29.40;50.10
13721;DHT22;6932;51.438;5.470;2023-06-26T14:33:52;29.40;50.60
13721;DHT22;6932;51.438;5.470;2023-06-26T14:36:18;29.40;50.80
13721;DHT22;6932;51.438;5.470;2023-06-26T14:38:44;29.40;51.00
13721;DHT22;6932;51.438;5.470;2023-06-26T14:41:11;29.40;51.00
13721;DHT22;6932;51.438;5.470;2023-06-26T14:43:38;29.30;51.00
13721;DHT22;6932;51.438;5.470;2023-06-26T14:46:04;29.30;50.80
13721;DHT22;6932;51.438;5.470;2023-06-26T14:48:29;29.30;50.70
13721;DHT22;6932;51.438;5.470;2023-06-26T14:50:55;29.20;51.00
13721;DHT22;6932;51.438;5.470;2023-06-26T14:53:21;29.20;51.10
13721;DHT22;6932;51.438;5.470;2023-06-26T14:55:47;29.10;50.60
13721;DHT22;6932;51.438;5.470;2023-06-26T14:58:12;29.00;50.50
13721;DHT22;6932;51.438;5.470;2023-06-26T15:00:38;29.00;50.80
13721;DHT22;6932;51.438;5.470;2023-06-26T15:03:04;28.90;50.50
13721;DHT22;6932;51.438;5.470;2023-06-26T15:05:29;28.90;50.40
13721;DHT22;6932;51.438;5.470;2023-06-26T15:07:55;28.90;49.90
13721;DHT22;6932;51.438;5.470;2023-06-26T15:10:21;28.90;49.60
13721;DHT22;6932;51.438;5.470;2023-06-26T15:12:47;28.40;50.50
13721;DHT22;6932;51.438;5.470;2023-06-26T15:15:13;28.40;50.70
13721;DHT22;6932;51.438;5.470;2023-06-26T15:17:39;28.50;50.80
13721;DHT22;6932;51.438;5.470;2023-06-26T15:20:05;28.60;50.40
13721;DHT22;6932;51.438;5.470;2023-06-26T15:22:31;28.70;50.20
13721;DHT22;6932;51.438;5.470;2023-06-26T15:24:57;28.70;50.20
13721;DHT22;6932;51.438;5.470;2023-06-26T15:27:23;28.70;50.30
13721;DHT22;6932;51.438;5.470;2023-06-26T15:29:48;28.70;50.30
13721;DHT22;6932;51.438;5.470;2023-06-26T15:32:14;28.80;50.50
13721;DHT22;6932;51.438;5.470;2023-06-26T15:34:41;28.80;50.60
13721;DHT22;6932;51.438;5.470;2023-06-26T15:37:07;28.80;50.80
13721;DHT22;6932;51.438;5.470;2023-06-26T15:39:33;28.90;51.80
13721;DHT22;6932;51.438;5.470;2023-06-26T15:41:59;28.90;51.10
13721;DHT22;6932;51.438;5.470;2023-06-26T15:44:24;29.00;51.10
13721;DHT22;6932;51.438;5.470;2023-06-26T15:46:50;29.00;51.20
13721;DHT22;6932;51.438;5.470;2023-06-26T15:49:16;29.00;51.10
13721;DHT22;6932;51.438;5.470;2023-06-26T15:51:42;29.00;51.00
13721;DHT22;6932;51.438;5.470;2023-06-26T15:54:10;29.00;51.00
13721;DHT22;6932;51.438;5.470;2023-06-26T15:56:36;29.00;50.60
13721;DHT22;6932;51.438;5.470;2023-06-26T15:59:02;29.00;50.40